Ocean Echo — WDE7227 — position and weather

sailwx.info

Track history (hours):
 
Tides and Currents Weather Stations Pressure Air Temp Water Temp Dewpoint Dewpoint Depression Visibility Wind Speed Wind Dir Waves Ship Positions

Ocean Echo

Owner: Starnitzky, Hellmuth O, Oakland, CA. More information available from US FCC via Universal Licensing System and Coast Guard Vessel Documentation Center.

Last reported at 2018-Jan-07 20:14 UTC. Time now 2018-Jan-23 10:10 UTC.
Position N 37°47' W 122°16'.
Warning: this ship's position is 15 days out of date.

Length 19 m.

Type: Sailing vessel. MMSI: 367390660.

Date/timePositionNaut miles runAvg speedWind from/ knotsBaromVisibWave heightAir tempDewpointWater temp
2018-Jan-07 20:14N 37°47' W 122°16'0 0.0
2018-Jan-07 19:59N 37°47' W 122°16'2 4.7
2018-Jan-07 19:30N 37°48' W 122°19'3 6.5
2018-Jan-07 19:00N 37°50' W 122°22'3 6.8
2018-Jan-07 18:30N 37°53' W 122°24'4 7.4
2018-Jan-07 18:00N 37°57' W 122°26'2 4.4
2018-Jan-07 17:29N 37°59' W 122°25'1 0.1
2018-Jan-06 21:30N 37°60' W 122°24'4 8.0
2018-Jan-06 21:00N 37°56' W 122°26'2 4.7
2018-Jan-06 20:30N 37°54' W 122°24'3 5.4
2018-Jan-06 20:00N 37°51' W 122°24'2 4.3
2018-Jan-06 19:30N 37°49' W 122°23'3 5.7
2018-Jan-06 19:00N 37°48' W 122°20'3 4.4
2018-Jan-06 18:25N 37°47' W 122°16'0 0.0
2018-Jan-06 17:58N 37°47' W 122°16'0 0.0
2018-Jan-06 01:22N 37°47' W 122°16'0 0.0
2018-Jan-06 00:58N 37°47' W 122°16'0 0.0
2018-Jan-06 00:28N 37°47' W 122°16'0 0.0
2018-Jan-05 23:58N 37°47' W 122°16'0 0.0
2018-Jan-05 23:28N 37°47' W 122°16'0 0.0
2018-Jan-05 22:58N 37°47' W 122°16'0 0.0
2018-Jan-05 22:28N 37°47' W 122°16'0 0.0
2018-Jan-05 21:55N 37°47' W 122°16'0 0.0
2018-Jan-05 21:28N 37°47' W 122°16'  
Track history (hours):
 
Tides and Currents Weather Stations Pressure Air Temp Water Temp Dewpoint Dewpoint Depression Visibility Wind Speed Wind Dir Waves Ship Positions

Ocean Echo

Owner: Starnitzky, Hellmuth O, Oakland, CA. More information available from US FCC via Universal Licensing System and Coast Guard Vessel Documentation Center.

Last reported at 2018-Jan-07 20:14 UTC. Time now 2018-Jan-23 10:10 UTC.
Position N 37°47' W 122°16'.
Warning: this ship's position is 15 days out of date.

Length 19 m.

Type: Sailing vessel. MMSI: 367390660.

Date/timePositionNaut miles runAvg speedWind from/ knotsBaromVisibWave heightAir tempDewpointWater temp
2018-Jan-07 20:14N 37°47' W 122°16'0 0.0
2018-Jan-07 19:59N 37°47' W 122°16'2 4.7
2018-Jan-07 19:30N 37°48' W 122°19'3 6.5
2018-Jan-07 19:00N 37°50' W 122°22'3 6.8
2018-Jan-07 18:30N 37°53' W 122°24'4 7.4
2018-Jan-07 18:00N 37°57' W 122°26'2 4.4
2018-Jan-07 17:29N 37°59' W 122°25'1 0.1
2018-Jan-06 21:30N 37°60' W 122°24'4 8.0
2018-Jan-06 21:00N 37°56' W 122°26'2 4.7
2018-Jan-06 20:30N 37°54' W 122°24'3 5.4
2018-Jan-06 20:00N 37°51' W 122°24'2 4.3
2018-Jan-06 19:30N 37°49' W 122°23'3 5.7
2018-Jan-06 19:00N 37°48' W 122°20'3 4.4
2018-Jan-06 18:25N 37°47' W 122°16'0 0.0
2018-Jan-06 17:58N 37°47' W 122°16'0 0.0
2018-Jan-06 01:22N 37°47' W 122°16'0 0.0
2018-Jan-06 00:58N 37°47' W 122°16'0 0.0
2018-Jan-06 00:28N 37°47' W 122°16'0 0.0
2018-Jan-05 23:58N 37°47' W 122°16'0 0.0
2018-Jan-05 23:28N 37°47' W 122°16'0 0.0
2018-Jan-05 22:58N 37°47' W 122°16'0 0.0
2018-Jan-05 22:28N 37°47' W 122°16'0 0.0
2018-Jan-05 21:55N 37°47' W 122°16'0 0.0
2018-Jan-05 21:28N 37°47' W 122°16'  

Dump ship's entire track history